Time;durP1;ratioP1;P1;durP2;ratioP2;P2;SDS_P1;SDS_P2;PMS_P1;PMS_P2;Temp;Humidity;BMP_temperature;BMP_pressure;BME280_temperature;BME280_humidity;BME280_pressure;Samples;Min_cycle;Max_cycle;Signal;HPM_P1;HPM_P2
2023/09/08 00:01:49;;;;;;;0.40;0.10;;;;;;;19.18;71.99;101093.34;4986638;28;20038;-67
2023/09/08 00:04:14;;;;;;;0.60;0.00;;;;;;;19.11;72.39;101092.44;4989916;28;20045;-68
2023/09/08 00:06:40;;;;;;;0.13;0.10;;;;;;;19.21;70.76;101090.34;4988612;28;20061;-68
2023/09/08 00:09:07;;;;;;;0.55;0.10;;;;;;;19.19;70.75;101073.84;4981556;28;20476;-68
2023/09/08 00:11:32;;;;;;;0.10;0.00;;;;;;;19.28;70.75;101083.31;4984278;28;20085;-68
2023/09/08 00:13:58;;;;;;;0.20;0.10;;;;;;;19.11;71.86;101089.81;4984037;28;20027;-67
2023/09/08 00:16:23;;;;;;;0.85;0.10;;;;;;;19.03;71.90;101089.91;4985844;28;20396;-67
2023/09/08 00:18:50;;;;;;;0.50;0.10;;;;;;;19.01;72.73;101091.91;4989707;28;20041;-67
2023/09/08 00:21:15;;;;;;;0.65;0.10;;;;;;;18.91;72.74;101084.25;4988661;28;20046;-68
2023/09/08 00:23:41;;;;;;;1.90;0.10;;;;;;;18.84;74.00;101081.56;4991632;28;20034;-67
2023/09/08 00:26:06;;;;;;;0.08;0.00;;;;;;;18.92;72.42;101090.38;4989388;28;20045;-68
2023/09/08 00:28:32;;;;;;;0.32;0.10;;;;;;;18.93;72.81;101084.91;4991416;28;20076;-68
2023/09/08 00:30:59;;;;;;;0.20;0.10;;;;;;;19.32;68.45;101084.56;4990192;28;20042;-68
2023/09/08 00:33:25;;;;;;;0.20;0.00;;;;;;;19.81;66.90;101086.50;4989506;28;20034;-67
2023/09/08 00:35:50;;;;;;;0.10;0.00;;;;;;;19.94;67.70;101081.31;4990694;28;20088;-67
2023/09/08 00:38:16;;;;;;;0.98;0.10;;;;;;;19.67;69.41;101087.38;4988966;28;20030;-67
2023/09/08 00:40:42;;;;;;;0.30;0.03;;;;;;;19.39;71.58;101080.16;4990631;28;20510;-68
2023/09/08 00:43:07;;;;;;;0.30;0.00;;;;;;;19.22;73.16;101084.88;4990709;28;20037;-67
2023/09/08 00:45:40;;;;;;;0.55;0.10;;;;;;;19.05;73.88;101091.34;4986901;28;20026;-68
2023/09/08 00:48:06;;;;;;;0.20;0.10;;;;;;;18.84;74.77;101084.19;4989216;28;20030;-68
2023/09/08 00:50:32;;;;;;;0.40;0.10;;;;;;;18.75;75.22;101081.84;4989767;28;20037;-68
2023/09/08 00:52:58;;;;;;;0.10;0.00;;;;;;;18.59;75.50;101082.81;4990864;28;20031;-68
2023/09/08 00:55:24;;;;;;;0.00;0.00;;;;;;;18.50;76.58;101083.88;4989294;28;20030;-67
2023/09/08 00:57:50;;;;;;;0.57;0.03;;;;;;;18.41;77.03;101072.63;4989913;28;20058;-67
2023/09/08 01:00:15;;;;;;;0.68;0.10;;;;;;;18.38;76.98;101075.63;4988517;28;20170;-68
2023/09/08 01:02:41;;;;;;;0.82;0.10;;;;;;;18.34;77.49;101073.53;4988068;28;20081;-68
2023/09/08 01:05:06;;;;;;;0.30;0.08;;;;;;;18.29;77.35;101075.88;4990803;28;20026;-68
2023/09/08 01:07:33;;;;;;;0.10;0.00;;;;;;;18.26;78.27;101065.69;4986880;28;20030;-68
2023/09/08 01:10:04;;;;;;;0.20;0.10;;;;;;;18.17;79.05;101072.84;4989111;28;20022;-67
2023/09/08 01:12:29;;;;;;;0.40;0.10;;;;;;;18.02;79.11;101070.19;4987600;28;20552;-67
2023/09/08 01:14:55;;;;;;;0.20;0.00;;;;;;;17.98;80.30;101071.53;4989634;28;20058;-67
2023/09/08 01:17:20;;;;;;;0.47;0.10;;;;;;;17.94;79.70;101072.91;4987220;28;20038;-68
2023/09/08 01:19:47;;;;;;;0.10;0.00;;;;;;;17.96;79.99;101070.88;4987588;28;20042;-68
2023/09/08 01:22:44;;;;;;;0.32;0.08;;;;;;;18.00;79.54;101071.34;4989849;28;20477;-68
2023/09/08 01:25:12;;;;;;;;;;;;;;;18.70;74.81;101063.91;4999963;28;20136;-68
2023/09/08 01:27:40;;;;;;;0.10;0.00;;;;;;;19.20;70.57;101070.19;4986557;28;19965;-67
2023/09/08 01:30:07;;;;;;;0.30;0.00;;;;;;;19.38;71.62;101067.13;4988879;28;20136;-68
2023/09/08 01:32:34;;;;;;;0.45;0.10;;;;;;;19.52;68.79;101067.09;4989432;28;20037;-67
2023/09/08 01:35:00;;;;;;;0.20;0.10;;;;;;;19.74;67.82;101067.13;4990652;28;20031;-67
2023/09/08 01:37:26;;;;;;;0.68;0.08;;;;;;;19.87;67.05;101062.75;4986896;28;20384;-68
2023/09/08 01:39:52;;;;;;;0.30;0.10;;;;;;;19.87;66.62;101057.44;4984803;28;20043;-67
2023/09/08 01:42:17;;;;;;;1.25;0.10;;;;;;;19.80;68.02;101061.91;4986603;28;20031;-68
2023/09/08 01:44:43;;;;;;;0.00;0.00;;;;;;;19.67;67.82;101051.19;4988783;28;20035;-68
2023/09/08 01:47:08;;;;;;;0.22;0.00;;;;;;;19.61;68.99;101048.50;4982023;28;20133;-67
2023/09/08 01:49:33;;;;;;;0.30;0.10;;;;;;;19.58;68.99;101054.16;4988295;28;20062;-67
2023/09/08 01:51:59;;;;;;;0.10;0.00;;;;;;;19.60;69.54;101049.50;4985948;28;20063;-68
2023/09/08 01:54:24;;;;;;;0.30;0.05;;;;;;;19.43;69.68;101055.00;4989958;28;20088;-68
2023/09/08 01:56:51;;;;;;;0.28;0.10;;;;;;;19.33;70.14;101048.41;4989066;28;20042;-67
2023/09/08 01:59:16;;;;;;;0.10;0.10;;;;;;;19.19;71.76;101050.91;4992493;28;20110;-68
2023/09/08 02:01:42;;;;;;;0.10;0.00;;;;;;;19.11;72.60;101052.81;4988069;28;20047;-67
2023/09/08 02:04:07;;;;;;;0.20;0.10;;;;;;;18.99;73.43;101047.19;4988160;28;20126;-67
2023/09/08 02:06:33;;;;;;;0.15;0.10;;;;;;;18.89;74.27;101046.69;4986950;28;20030;-68
2023/09/08 02:08:58;;;;;;;0.28;0.10;;;;;;;18.74;74.98;101051.16;4989229;28;20041;-67
2023/09/08 02:11:23;;;;;;;0.30;0.10;;;;;;;18.61;75.98;101050.97;4987166;28;20030;-68
2023/09/08 02:13:49;;;;;;;0.35;0.00;;;;;;;18.50;77.36;101042.47;4983590;28;20026;-67
2023/09/08 02:16:15;;;;;;;0.38;0.10;;;;;;;18.41;77.15;101048.06;4988270;28;20034;-68
2023/09/08 02:18:43;;;;;;;0.20;0.10;;;;;;;18.32;77.61;101043.88;4985220;28;20105;-67
2023/09/08 02:21:08;;;;;;;0.65;0.20;;;;;;;18.22;78.77;101047.59;4987787;28;20050;-67
2023/09/08 02:23:34;;;;;;;0.15;0.00;;;;;;;18.15;78.61;101048.47;4988475;28;20027;-67
2023/09/08 02:25:59;;;;;;;0.28;0.10;;;;;;;18.09;79.92;101047.38;4988175;28;20035;-67
2023/09/08 02:28:24;;;;;;;0.22;0.10;;;;;;;18.08;78.79;101047.56;4988728;28;20030;-67
2023/09/08 02:30:50;;;;;;;0.13;0.00;;;;;;;18.16;79.19;101040.38;4989124;28;20065;-68
2023/09/08 02:33:15;;;;;;;1.75;0.10;;;;;;;18.12;78.37;101041.75;4988968;28;20490;-67
2023/09/08 02:35:41;;;;;;;0.25;0.10;;;;;;;18.05;79.37;101038.19;4988648;28;20042;-68
2023/09/08 02:38:07;;;;;;;0.20;0.20;;;;;;;17.98;79.89;101036.44;4992537;28;20391;-67
2023/09/08 02:40:34;;;;;;;0.22;0.10;;;;;;;17.92;80.68;101043.28;4993187;28;20124;-67
2023/09/08 02:43:00;;;;;;;3.20;0.10;;;;;;;17.85;81.67;101044.97;4992751;28;20176;-68
2023/09/08 02:45:26;;;;;;;0.22;0.10;;;;;;;17.78;81.68;101044.03;4991519;28;20101;-67
2023/09/08 02:47:51;;;;;;;0.30;0.10;;;;;;;17.73;81.53;101028.75;4991643;28;20085;-67
2023/09/08 02:50:17;;;;;;;0.10;0.00;;;;;;;17.69;82.03;101037.19;4991969;28;20056;-67
2023/09/08 02:52:43;;;;;;;0.52;0.30;;;;;;;17.64;82.33;101031.59;4991942;28;20034;-67
2023/09/08 02:55:09;;;;;;;0.20;0.10;;;;;;;17.59;82.98;101043.47;4993198;28;20061;-68
2023/09/08 02:57:34;;;;;;;0.55;0.10;;;;;;;17.55;82.99;101033.47;4993538;28;20456;-68
2023/09/08 02:59:59;;;;;;;0.22;0.10;;;;;;;17.52;82.46;101034.63;5001263;28;20384;-67
2023/09/08 03:02:25;;;;;;;0.45;0.10;;;;;;;17.43;84.57;101037.53;4990703;28;20510;-67
2023/09/08 03:04:51;;;;;;;0.10;0.10;;;;;;;17.35;84.12;101043.66;4992312;28;20034;-67
2023/09/08 03:07:16;;;;;;;0.57;0.08;;;;;;;17.33;84.39;101047.47;4989316;28;20030;-67
2023/09/08 03:09:42;;;;;;;1.15;0.10;;;;;;;17.32;84.06;101035.28;4991460;28;20046;-67
2023/09/08 03:12:07;;;;;;;0.17;0.03;;;;;;;17.30;84.12;101027.56;4990877;28;20049;-67
2023/09/08 03:14:33;;;;;;;0.20;0.10;;;;;;;17.27;84.28;101038.44;4990634;28;20038;-68
2023/09/08 03:16:58;;;;;;;0.20;0.10;;;;;;;17.23;85.49;101045.06;4991334;28;20034;-67
2023/09/08 03:19:24;;;;;;;0.95;0.03;;;;;;;17.17;84.65;101036.03;4991049;28;20038;-67
2023/09/08 03:21:49;;;;;;;1.65;0.10;;;;;;;17.15;85.39;101032.75;4990991;28;20487;-67
2023/09/08 03:24:15;;;;;;;0.95;0.20;;;;;;;17.15;85.57;101031.94;4987929;28;20030;-67
2023/09/08 03:26:40;;;;;;;0.82;0.03;;;;;;;17.13;85.70;101036.56;4990381;28;20050;-67
2023/09/08 03:29:06;;;;;;;0.32;0.10;;;;;;;17.11;85.81;101039.34;4992003;28;20042;-67
2023/09/08 03:31:32;;;;;;;0.25;0.10;;;;;;;17.07;84.91;101029.34;4990806;28;20042;-68
2023/09/08 03:33:57;;;;;;;0.40;0.10;;;;;;;17.14;85.26;101025.84;4991817;28;20022;-67
2023/09/08 03:36:24;;;;;;;0.52;0.20;;;;;;;17.08;85.86;101028.34;4990341;28;20138;-67
2023/09/08 03:38:49;;;;;;;0.30;0.20;;;;;;;17.11;85.12;101030.63;4991800;28;20034;-67
2023/09/08 03:41:15;;;;;;;0.47;0.10;;;;;;;17.08;85.41;101031.81;4991813;28;20041;-67
2023/09/08 03:43:40;;;;;;;0.32;0.20;;;;;;;17.15;85.00;101034.56;4990521;28;20042;-67
2023/09/08 03:46:06;;;;;;;1.25;0.10;;;;;;;17.17;84.93;101027.31;4990114;28;20463;-67
2023/09/08 03:48:31;;;;;;;0.10;0.05;;;;;;;17.15;85.49;101024.03;4989889;28;20030;-67
2023/09/08 03:50:56;;;;;;;0.32;0.20;;;;;;;17.14;84.25;101028.47;4991567;28;20062;-68
2023/09/08 03:53:22;;;;;;;0.10;0.00;;;;;;;17.27;83.97;101027.91;4989557;28;20034;-67
2023/09/08 03:55:47;;;;;;;0.10;0.00;;;;;;;17.27;83.53;101019.19;4991666;28;20121;-67
2023/09/08 03:58:13;;;;;;;0.50;0.08;;;;;;;17.38;82.50;101021.44;4992150;28;20440;-68
2023/09/08 04:00:38;;;;;;;0.80;0.20;;;;;;;17.42;82.95;101018.28;4989310;28;20034;-67
2023/09/08 04:03:04;;;;;;;0.30;0.08;;;;;;;17.34;83.37;101015.69;4989189;28;20051;-67
2023/09/08 04:05:29;;;;;;;0.20;0.10;;;;;;;17.27;84.66;101012.13;4989424;28;20098;-67
2023/09/08 04:07:55;;;;;;;0.10;0.08;;;;;;;17.19;84.54;101012.97;4991269;28;20038;-67
2023/09/08 04:10:20;;;;;;;1.33;0.10;;;;;;;17.24;84.12;101015.91;4989317;28;20038;-67
2023/09/08 04:12:46;;;;;;;0.20;0.10;;;;;;;17.18;84.82;101010.53;4990898;28;20048;-68
2023/09/08 04:15:11;;;;;;;0.38;0.20;;;;;;;17.03;86.10;101010.44;4991974;28;20034;-68
2023/09/08 04:17:37;;;;;;;0.20;0.00;;;;;;;17.02;85.25;101008.81;4987574;28;20057;-67
2023/09/08 04:20:07;;;;;;;1.10;0.20;;;;;;;17.05;84.93;101005.00;4992021;28;20037;-67
2023/09/08 04:22:34;;;;;;;0.38;0.10;;;;;;;17.16;84.04;101012.50;4989064;28;20045;-68
2023/09/08 04:25:00;;;;;;;0.32;0.10;;;;;;;17.21;84.40;101008.38;4989397;28;20053;-67
2023/09/08 04:27:25;;;;;;;0.20;0.10;;;;;;;17.19;85.00;101005.09;4989605;28;20541;-67
2023/09/08 04:29:51;;;;;;;0.10;0.00;;;;;;;17.14;85.03;101010.03;4991612;28;20031;-68
2023/09/08 04:32:16;;;;;;;0.30;0.10;;;;;;;17.09;85.87;101019.47;4988609;28;20101;-67
2023/09/08 04:34:42;;;;;;;0.15;0.10;;;;;;;17.10;86.59;101014.03;4988359;28;20132;-67
2023/09/08 04:37:08;;;;;;;0.68;0.20;;;;;;;17.06;86.60;101017.16;4990995;28;20084;-67
2023/09/08 04:39:34;;;;;;;1.55;0.10;;;;;;;17.02;86.87;101018.50;4989304;28;20038;-67
2023/09/08 04:42:00;;;;;;;0.30;0.10;;;;;;;17.00;87.09;101020.53;4990697;28;20065;-67
2023/09/08 04:44:26;;;;;;;0.20;0.10;;;;;;;16.98;87.32;101017.25;4991283;28;20018;-67
2023/09/08 04:46:52;;;;;;;0.25;0.08;;;;;;;16.90;87.54;101021.56;4987835;28;20097;-68
2023/09/08 04:49:18;;;;;;;0.10;0.05;;;;;;;16.91;87.54;101020.56;4986042;28;20030;-68
2023/09/08 04:51:44;;;;;;;0.00;0.00;;;;;;;16.92;87.56;101024.84;4990226;28;20602;-68
2023/09/08 04:54:09;;;;;;;0.30;0.03;;;;;;;16.94;88.63;101021.22;4991733;28;20038;-67
2023/09/08 04:56:35;;;;;;;2.13;0.10;;;;;;;16.91;88.47;101025.81;4989044;28;23597;-68
2023/09/08 04:59:01;;;;;;;0.20;0.10;;;;;;;16.90;88.96;101018.91;4984331;28;20066;-68
2023/09/08 05:01:27;;;;;;;1.10;0.00;;;;;;;16.91;88.58;101028.47;4987427;28;20034;-67
2023/09/08 05:03:52;;;;;;;0.40;0.10;;;;;;;16.85;89.06;101029.13;4990570;28;20511;-67
2023/09/08 05:06:18;;;;;;;0.28;0.10;;;;;;;16.88;89.48;101027.97;4988670;28;20054;-67
2023/09/08 05:08:44;;;;;;;1.23;0.30;;;;;;;16.85;89.44;101037.03;4990429;28;20117;-67
2023/09/08 05:11:10;;;;;;;0.70;0.10;;;;;;;16.98;88.50;101038.31;4990359;28;20040;-67
2023/09/08 05:13:35;;;;;;;0.10;0.00;;;;;;;17.00;88.83;101034.50;4991227;28;20502;-67
2023/09/08 05:16:10;;;;;;;0.52;0.10;;;;;;;17.11;87.69;101034.09;4989277;28;20030;-67
2023/09/08 05:18:39;;;;;;;1.58;0.20;;;;;;;17.15;88.74;101030.13;4985098;28;20407;-67
2023/09/08 05:21:05;;;;;;;0.82;0.08;;;;;;;17.15;89.77;101034.56;4983134;28;20213;-68
2023/09/08 05:23:31;;;;;;;0.15;0.00;;;;;;;17.17;89.32;101025.50;4985589;28;20692;-67
2023/09/08 05:25:56;;;;;;;0.28;0.10;;;;;;;17.23;89.73;101026.63;4987312;28;20034;-65
2023/09/08 05:28:22;;;;;;;1.05;0.28;;;;;;;17.24;90.25;101031.72;4985719;28;20070;-65
2023/09/08 05:30:47;;;;;;;0.55;0.10;;;;;;;17.36;89.09;101042.69;4984687;28;20099;-65
2023/09/08 05:33:13;;;;;;;0.10;0.10;;;;;;;17.46;89.35;101043.28;4988201;28;20026;-65
2023/09/08 05:35:38;;;;;;;0.20;0.00;;;;;;;17.52;88.97;101042.53;4981423;28;20030;-65
2023/09/08 05:38:05;;;;;;;0.10;0.10;;;;;;;17.56;88.65;101041.19;4989700;28;20504;-65
2023/09/08 05:40:30;;;;;;;1.23;0.10;;;;;;;17.64;89.04;101039.50;4986857;28;20100;-65
2023/09/08 05:42:55;;;;;;;0.30;0.15;;;;;;;17.60;89.82;101052.22;4988715;28;20030;-62
2023/09/08 05:45:22;;;;;;;0.35;0.10;;;;;;;17.67;89.21;101033.91;4987818;28;20069;-62
2023/09/08 05:47:49;;;;;;;0.30;0.10;;;;;;;17.73;89.37;101041.13;4988321;28;20451;-62
2023/09/08 05:50:14;;;;;;;0.50;0.10;;;;;;;17.99;87.40;101046.81;4989541;28;20080;-62
2023/09/08 05:52:40;;;;;;;0.30;0.10;;;;;;;18.22;85.82;101044.94;4987221;28;20121;-62
2023/09/08 05:55:05;;;;;;;0.20;0.03;;;;;;;18.37;85.28;101044.16;4989625;28;20041;-63
2023/09/08 05:57:31;;;;;;;0.20;0.10;;;;;;;18.52;85.06;101044.94;4989485;28;20040;-64
2023/09/08 05:59:56;;;;;;;0.20;0.10;;;;;;;18.59;84.99;101045.84;4987477;28;20030;-63
2023/09/08 06:02:22;;;;;;;0.73;0.10;;;;;;;18.65;85.23;101036.41;4992975;28;20032;-64
2023/09/08 06:04:47;;;;;;;0.15;0.10;;;;;;;18.70;85.50;101041.97;4987869;28;20034;-64
2023/09/08 06:07:13;;;;;;;0.93;0.10;;;;;;;18.76;85.69;101043.88;4990317;28;20037;-62
2023/09/08 06:09:38;;;;;;;0.43;0.13;;;;;;;18.88;85.39;101043.22;4986095;28;20113;-62
2023/09/08 06:12:04;;;;;;;1.17;0.20;;;;;;;18.99;85.90;101046.38;4991441;28;20034;-63
2023/09/08 06:14:29;;;;;;;0.35;0.10;;;;;;;19.10;85.07;101044.09;4992126;28;20033;-63
2023/09/08 06:16:55;;;;;;;0.88;0.20;;;;;;;19.31;84.22;101035.38;4992207;28;20030;-63
2023/09/08 06:19:21;;;;;;;0.40;0.10;;;;;;;19.40;83.53;101034.22;4989755;28;20038;-63
2023/09/08 06:21:46;;;;;;;0.93;0.20;;;;;;;19.52;84.78;101038.03;4993713;28;20549;-63
2023/09/08 06:24:11;;;;;;;0.52;0.10;;;;;;;19.81;81.32;101034.44;4991273;28;20125;-63
2023/09/08 06:26:38;;;;;;;0.85;0.10;;;;;;;20.11;80.72;101031.59;4989397;28;20026;-63
2023/09/08 06:29:03;;;;;;;0.40;0.10;;;;;;;20.22;80.60;101033.72;4991450;28;20121;-63
2023/09/08 06:31:29;;;;;;;0.20;0.05;;;;;;;20.63;74.96;101025.00;4987023;28;20233;-63
2023/09/08 06:33:54;;;;;;;0.65;0.10;;;;;;;21.29;66.87;101031.34;4993322;28;20034;-63
2023/09/08 06:36:19;;;;;;;0.10;0.10;;;;;;;21.60;69.83;101028.16;4992644;28;20092;-63
2023/09/08 06:38:45;;;;;;;0.10;0.00;;;;;;;21.74;66.44;101024.47;4990232;28;20139;-63
2023/09/08 06:41:11;;;;;;;0.28;0.00;;;;;;;21.93;68.48;101020.19;4988589;28;20472;-63
2023/09/08 06:43:37;;;;;;;0.57;0.10;;;;;;;21.86;70.58;101029.97;4992897;28;20476;-63
2023/09/08 06:46:03;;;;;;;0.10;0.00;;;;;;;21.86;69.83;101022.00;4993615;28;20083;-63
2023/09/08 06:48:29;;;;;;;0.22;0.10;;;;;;;21.91;71.07;101027.53;4988298;28;20507;-63
2023/09/08 06:50:56;;;;;;;0.55;0.10;;;;;;;21.95;71.10;101022.63;4987674;28;20034;-63
2023/09/08 06:53:22;;;;;;;0.20;0.10;;;;;;;21.98;73.00;101033.66;4989736;28;20088;-63
2023/09/08 06:55:47;;;;;;;0.20;0.10;;;;;;;21.92;75.13;101026.50;4992423;28;20413;-63
2023/09/08 06:58:14;;;;;;;0.32;0.17;;;;;;;21.95;75.19;101031.41;4991709;28;20030;-63
2023/09/08 07:00:40;;;;;;;0.30;0.10;;;;;;;21.95;76.21;101034.06;4990545;28;20023;-63
2023/09/08 07:03:06;;;;;;;0.50;0.10;;;;;;;21.99;76.61;101035.28;4991062;28;20030;-63
2023/09/08 07:05:31;;;;;;;0.50;0.10;;;;;;;22.09;75.03;101033.06;4990403;28;20392;-64
2023/09/08 07:07:56;;;;;;;0.32;0.10;;;;;;;22.23;74.17;101035.66;4991258;28;20046;-63
2023/09/08 07:10:22;;;;;;;0.10;0.00;;;;;;;22.49;71.86;101040.94;4990458;28;20042;-63
2023/09/08 07:12:48;;;;;;;0.10;0.10;;;;;;;22.57;72.41;101034.56;4993061;28;20081;-63
2023/09/08 07:15:14;;;;;;;0.43;0.10;;;;;;;22.59;72.39;101032.53;4990810;28;20488;-63
2023/09/08 07:17:40;;;;;;;0.30;0.10;;;;;;;22.76;69.41;101034.47;4991225;28;20089;-63
2023/09/08 07:20:06;;;;;;;1.77;0.10;;;;;;;22.91;69.07;101041.41;4991408;28;20081;-64
2023/09/08 07:22:31;;;;;;;0.38;0.10;;;;;;;23.02;67.86;101035.44;4991752;28;20042;-64
2023/09/08 07:24:57;;;;;;;0.52;0.10;;;;;;;23.02;68.17;101043.41;4992968;28;20038;-63
2023/09/08 07:27:22;;;;;;;0.40;0.10;;;;;;;23.10;64.95;101040.50;4991638;28;20476;-63
2023/09/08 07:29:49;;;;;;;0.13;0.10;;;;;;;23.34;65.43;101047.72;4992508;28;20034;-63
2023/09/08 07:32:16;;;;;;;0.10;0.08;;;;;;;23.57;60.83;101041.06;4991706;28;20194;-63
2023/09/08 07:34:41;;;;;;;0.32;0.20;;;;;;;23.84;61.89;101037.13;4992059;28;20501;-63
2023/09/08 07:37:07;;;;;;;0.30;0.10;;;;;;;23.87;61.34;101036.69;4992180;28;20038;-63
2023/09/08 07:39:32;;;;;;;1.05;0.10;;;;;;;23.87;62.20;101034.03;4990618;28;20034;-63
2023/09/08 07:41:58;;;;;;;0.32;0.13;;;;;;;23.87;64.10;101043.88;4992479;28;20041;-63
2023/09/08 07:44:24;;;;;;;0.50;0.10;;;;;;;23.94;62.86;101042.78;4991874;28;20479;-63
2023/09/08 07:46:51;;;;;;;0.32;0.10;;;;;;;23.99;64.04;101045.59;4992231;28;21317;-63
2023/09/08 07:49:20;;;;;;;0.20;0.08;;;;;;;24.03;63.74;101038.81;4991390;28;20034;-63
2023/09/08 07:51:46;;;;;;;0.30;0.10;;;;;;;24.02;64.14;101049.69;4992140;28;20390;-63
2023/09/08 07:54:13;;;;;;;0.30;0.10;;;;;;;24.11;63.02;101038.50;4992002;28;20027;-63
2023/09/08 07:56:40;;;;;;;0.55;0.10;;;;;;;24.27;62.14;101031.03;4987523;28;20471;-63
2023/09/08 07:59:06;;;;;;;0.20;0.10;;;;;;;24.34;62.20;101031.78;4990875;28;20105;-63
2023/09/08 08:01:32;;;;;;;0.52;0.10;;;;;;;24.27;63.51;101034.50;4991511;28;20369;-63
2023/09/08 08:03:57;;;;;;;0.60;0.10;;;;;;;24.36;64.01;101035.84;4991879;28;20034;-63
2023/09/08 08:06:23;;;;;;;0.10;0.00;;;;;;;24.34;63.18;101031.78;4991408;28;20034;-63
2023/09/08 08:08:48;;;;;;;0.57;0.20;;;;;;;24.51;60.05;101043.47;4991942;28;20387;-63
2023/09/08 08:11:17;;;;;;;0.10;0.00;;;;;;;24.74;59.03;101032.13;4991847;28;20053;-63
2023/09/08 08:13:43;;;;;;;0.43;0.20;;;;;;;24.95;60.33;101030.84;4989988;28;20480;-62
2023/09/08 08:16:09;;;;;;;1.33;0.15;;;;;;;25.01;61.08;101025.44;4991616;28;20053;-63
2023/09/08 08:18:34;;;;;;;1.05;0.10;;;;;;;24.97;62.38;101031.47;4991146;28;20045;-63
2023/09/08 08:21:00;;;;;;;0.30;0.10;;;;;;;24.93;63.09;101035.56;4991268;28;20042;-62
2023/09/08 08:23:26;;;;;;;0.82;0.10;;;;;;;24.91;62.99;101035.00;4991132;28;20472;-62
2023/09/08 08:25:51;;;;;;;0.10;0.08;;;;;;;24.89;63.58;101037.06;4991746;28;20121;-63
2023/09/08 08:28:17;;;;;;;0.40;0.10;;;;;;;24.83;63.75;101033.44;4989501;28;20145;-64
2023/09/08 08:30:42;;;;;;;0.22;0.10;;;;;;;24.89;62.70;101029.06;4991603;28;20375;-63
2023/09/08 08:33:07;;;;;;;0.20;0.00;;;;;;;24.93;63.12;101031.06;4991264;28;20035;-63
2023/09/08 08:35:33;;;;;;;0.80;0.10;;;;;;;25.00;61.55;101033.66;4991003;28;20042;-63
2023/09/08 08:38:02;;;;;;;0.20;0.10;;;;;;;24.99;62.83;101027.53;4991652;28;20048;-63
2023/09/08 08:40:28;;;;;;;0.50;0.10;;;;;;;25.02;62.44;101028.94;4989517;28;20034;-63
2023/09/08 08:42:57;;;;;;;0.30;0.10;;;;;;;24.99;62.29;101029.38;4991621;28;20395;-63
2023/09/08 08:45:26;;;;;;;0.40;0.10;;;;;;;24.96;62.88;101024.50;4990828;28;20550;-63
2023/09/08 08:47:53;;;;;;;1.27;0.20;;;;;;;24.92;62.98;101024.09;4991621;28;20456;-63
2023/09/08 08:50:19;;;;;;;0.20;0.10;;;;;;;24.86;62.86;101025.00;4990460;28;20125;-63
2023/09/08 08:52:46;;;;;;;0.22;0.10;;;;;;;24.91;62.52;101027.00;4991305;28;20030;-63
2023/09/08 08:55:14;;;;;;;0.10;0.00;;;;;;;24.90;62.47;101020.84;4991063;28;20030;-63
2023/09/08 08:57:40;;;;;;;0.10;0.00;;;;;;;24.85;61.89;101020.72;4991087;28;20417;-63
2023/09/08 09:00:11;;;;;;;0.20;0.10;;;;;;;24.77;62.57;101021.00;4991223;28;20139;-63
2023/09/08 09:02:41;;;;;;;0.08;0.00;;;;;;;24.77;62.08;101018.34;4982958;28;20037;-63
2023/09/08 09:05:12;;;;;;;0.20;0.10;;;;;;;24.76;61.13;101014.06;4990828;28;20030;-63
2023/09/08 09:07:41;;;;;;;0.20;0.10;;;;;;;24.74;62.31;101016.94;4990080;28;20089;-63
2023/09/08 09:10:08;;;;;;;0.52;0.10;;;;;;;24.67;63.01;101015.41;4991233;28;20112;-63
2023/09/08 09:12:35;;;;;;;0.55;0.17;;;;;;;24.55;62.77;101014.53;4990232;28;20030;-64
2023/09/08 09:15:04;;;;;;;0.28;0.10;;;;;;;24.47;62.01;101015.66;4991150;28;20026;-63
2023/09/08 09:17:30;;;;;;;0.40;0.10;;;;;;;24.50;61.87;101006.41;4990243;28;20214;-63
2023/09/08 09:20:17;;;;;;;0.20;0.10;;;;;;;24.47;60.13;101007.66;4990906;28;20022;-63
2023/09/08 09:22:43;;;;;;;0.47;0.10;;;;;;;24.41;61.54;101006.69;4990776;28;20042;-63
2023/09/08 09:25:09;;;;;;;0.10;0.00;;;;;;;24.44;62.16;101008.91;4990996;28;20033;-63
2023/09/08 09:27:40;;;;;;;0.32;0.10;;;;;;;24.46;62.18;101011.38;4990161;28;20049;-63
2023/09/08 09:30:06;;;;;;;0.00;0.00;;;;;;;24.42;62.01;101004.84;4991166;28;20490;-63
2023/09/08 09:32:35;;;;;;;0.40;0.08;;;;;;;24.49;61.46;101008.25;4990476;28;20053;-65
2023/09/08 09:35:01;;;;;;;0.25;0.10;;;;;;;24.44;60.99;101002.78;4990940;28;20022;-65
2023/09/08 09:37:26;;;;;;;0.32;0.10;;;;;;;24.66;57.79;101000.44;4989753;28;20491;-64
2023/09/08 09:39:54;;;;;;;0.38;0.10;;;;;;;24.73;59.25;100996.66;4990589;28;20022;-64
2023/09/08 09:42:20;;;;;;;0.20;0.10;;;;;;;24.59;59.62;100997.88;4989839;28;20528;-64
2023/09/08 09:44:52;;;;;;;0.43;0.08;;;;;;;24.49;60.53;100994.94;4991109;28;20489;-64
2023/09/08 09:47:19;;;;;;;0.38;0.10;;;;;;;24.40;58.21;100993.59;4994321;28;20559;-64
2023/09/08 09:49:45;;;;;;;0.20;0.10;;;;;;;24.37;59.85;100996.72;4994471;28;20039;-65
2023/09/08 09:52:15;;;;;;;0.73;0.10;;;;;;;24.72;58.79;100996.88;4994854;28;20030;-65
2023/09/08 09:54:43;;;;;;;1.10;0.10;;;;;;;24.78;59.72;101002.13;4992399;28;20067;-65
2023/09/08 09:57:13;;;;;;;0.10;0.00;;;;;;;24.79;59.23;100993.09;4994800;28;20216;-64
2023/09/08 09:59:40;;;;;;;0.10;0.03;;;;;;;25.09;57.52;100994.97;4994067;28;20391;-64
2023/09/08 10:02:12;;;;;;;0.85;0.10;;;;;;;25.11;56.75;100998.22;4994317;28;20030;-65
2023/09/08 10:04:40;;;;;;;0.20;0.10;;;;;;;24.99;55.30;101000.06;4993627;28;20109;-64
2023/09/08 10:07:06;;;;;;;0.22;0.10;;;;;;;25.11;55.33;100998.22;4994091;28;20093;-64
2023/09/08 10:09:31;;;;;;;0.30;0.20;;;;;;;24.96;57.08;100996.00;4994071;28;20045;-65
2023/09/08 10:12:02;;;;;;;0.50;0.10;;;;;;;24.79;58.01;100987.78;4994118;28;20034;-65
2023/09/08 10:14:30;;;;;;;0.17;0.00;;;;;;;24.65;58.13;100990.81;4994164;28;20026;-65
2023/09/08 10:16:59;;;;;;;0.20;0.00;;;;;;;24.74;57.81;100986.81;4994069;28;20121;-64
2023/09/08 10:19:25;;;;;;;0.38;0.10;;;;;;;24.97;57.96;100992.28;4993755;28;20483;-65
2023/09/08 10:21:54;;;;;;;0.40;0.10;;;;;;;24.97;57.76;100978.16;4993806;28;20116;-64
2023/09/08 10:24:26;;;;;;;0.20;0.00;;;;;;;24.85;57.67;100986.06;4993515;28;20369;-64
2023/09/08 10:27:06;;;;;;;0.60;0.10;;;;;;;24.95;58.35;100980.19;4994243;28;20030;-65
2023/09/08 10:29:32;;;;;;;0.20;0.10;;;;;;;24.95;57.48;100981.00;4993761;28;20026;-65
2023/09/08 10:31:59;;;;;;;0.65;0.15;;;;;;;25.16;56.96;100974.34;4993884;28;20034;-65
2023/09/08 10:34:26;;;;;;;0.28;0.10;;;;;;;25.59;56.37;100974.06;4993553;28;20065;-65
2023/09/08 10:36:52;;;;;;;0.60;0.10;;;;;;;25.73;56.42;100977.38;4993566;28;20034;-65
2023/09/08 10:39:31;;;;;;;0.20;0.10;;;;;;;25.69;54.63;100971.69;4993041;28;20045;-64
2023/09/08 10:42:20;;;;;;;0.40;0.10;;;;;;;25.79;53.88;100968.44;4993768;28;20099;-65
2023/09/08 10:44:49;;;;;;;0.30;0.10;;;;;;;25.68;56.21;100971.91;4990093;28;20066;-65
2023/09/08 10:47:25;;;;;;;0.30;0.10;;;;;;;25.70;54.12;100972.50;4993670;28;20053;-65
2023/09/08 10:49:53;;;;;;;0.20;0.10;;;;;;;25.61;56.58;100974.66;4989471;28;20091;-65
2023/09/08 10:52:22;;;;;;;0.63;0.10;;;;;;;25.42;56.00;100960.63;4992922;28;20072;-64
2023/09/08 10:54:50;;;;;;;0.20;0.10;;;;;;;25.27;57.20;100962.91;4988556;28;20022;-65
2023/09/08 10:57:17;;;;;;;1.85;0.10;;;;;;;25.48;54.40;100964.22;4994137;28;20045;-65
2023/09/08 10:59:54;;;;;;;0.40;0.15;;;;;;;25.70;54.44;100957.28;4987865;28;20502;-65
2023/09/08 11:02:38;;;;;;;0.60;0.10;;;;;;;25.79;52.13;100958.56;4991807;28;20547;-64
2023/09/08 11:05:07;;;;;;;0.50;0.13;;;;;;;25.94;54.04;100955.44;4993301;28;20124;-65
2023/09/08 11:07:32;;;;;;;0.35;0.10;;;;;;;26.03;54.62;100963.88;4990521;28;20037;-65
2023/09/08 11:09:59;;;;;;;0.82;0.20;;;;;;;26.12;54.25;100960.59;4989534;28;20030;-64
2023/09/08 11:12:28;;;;;;;0.38;0.10;;;;;;;26.03;54.83;100958.53;4997156;28;20511;-64
2023/09/08 11:14:54;;;;;;;0.35;0.10;;;;;;;26.23;49.28;100958.16;4996410;28;20023;-65
2023/09/08 11:17:19;;;;;;;0.98;0.10;;;;;;;26.82;48.91;100964.16;4990776;28;20033;-65
2023/09/08 11:19:49;;;;;;;0.10;0.10;;;;;;;26.99;50.93;100965.00;4986497;28;20495;-65
2023/09/08 11:22:16;;;;;;;0.10;0.10;;;;;;;26.58;51.96;100964.22;4994067;28;20042;-64